createdAt,value
2023-08-12T00:02:40.454Z,81.72
2023-08-12T00:07:42.712Z,81.71
2023-08-12T00:12:44.544Z,82.88
2023-08-12T00:17:46.226Z,83.33
2023-08-12T00:22:47.869Z,83.98
2023-08-12T00:27:49.465Z,82.78
2023-08-12T00:32:51.561Z,83.43
2023-08-12T00:37:53.311Z,81.99
2023-08-12T00:42:54.933Z,82.58
2023-08-12T00:47:56.721Z,83.20
2023-08-12T00:52:59.655Z,83.21
2023-08-12T00:58:01.671Z,85.43
2023-08-12T01:03:04.314Z,84.65
2023-08-12T01:08:06.107Z,84.34
2023-08-12T01:13:21.002Z,83.23
2023-08-12T01:18:25.156Z,84.01
2023-08-12T01:23:26.986Z,83.53
2023-08-12T01:28:28.607Z,83.57
2023-08-12T01:33:43.767Z,84.50
2023-08-12T01:38:45.712Z,84.30
2023-08-12T01:43:47.562Z,83.68
2023-08-12T01:48:49.326Z,83.30
2023-08-12T01:53:52.809Z,82.52
2023-08-12T01:58:54.572Z,83.10
2023-08-12T02:03:56.292Z,83.23
2023-08-12T02:08:58.020Z,83.55
2023-08-12T02:13:59.693Z,83.58
2023-08-12T02:19:01.313Z,85.20
2023-08-12T02:24:02.941Z,84.89
2023-08-12T02:29:04.983Z,85.32
2023-08-12T02:34:06.699Z,85.00
2023-08-12T02:39:08.348Z,85.86
2023-08-12T02:44:09.973Z,85.86
2023-08-12T02:49:11.672Z,85.61
2023-08-12T02:54:13.307Z,85.20
2023-08-12T02:59:15.020Z,86.00
2023-08-12T03:04:16.713Z,84.26
2023-08-12T03:09:19.497Z,84.76
2023-08-12T03:14:21.192Z,84.93
2023-08-12T03:19:22.935Z,85.55
2023-08-12T03:24:24.614Z,85.09
2023-08-12T03:29:26.364Z,85.20
2023-08-12T03:34:30.782Z,85.09
2023-08-12T03:39:34.188Z,85.10
2023-08-12T03:44:36.983Z,85.10
2023-08-12T03:49:39.191Z,84.91
2023-08-12T03:54:40.986Z,84.06
2023-08-12T03:59:42.813Z,84.49
2023-08-12T04:04:45.107Z,83.80
2023-08-12T04:09:46.892Z,84.63
2023-08-12T04:14:49.494Z,83.76
2023-08-12T04:19:51.219Z,83.18
2023-08-12T04:24:52.979Z,84.03
2023-08-12T04:29:55.881Z,83.45
2023-08-12T04:34:57.845Z,82.79
2023-08-12T04:40:00.672Z,82.44
2023-08-12T04:45:04.406Z,81.95
2023-08-12T04:50:08.075Z,80.30
2023-08-12T04:55:11.797Z,81.08
2023-08-12T05:00:13.996Z,80.94
2023-08-12T05:05:16.126Z,81.64
2023-08-12T05:10:18.305Z,79.39
2023-08-12T05:15:20.231Z,79.35
2023-08-12T05:20:23.156Z,78.65
2023-08-12T05:25:25.077Z,78.43
2023-08-12T05:30:26.773Z,76.67
2023-08-12T05:35:28.415Z,75.61
2023-08-12T05:40:30.688Z,75.01
2023-08-12T05:45:32.367Z,74.42
2023-08-12T05:50:33.985Z,73.37
2023-08-12T05:55:38.400Z,72.97
2023-08-12T06:00:40.023Z,71.83
2023-08-12T06:05:42.405Z,71.54
2023-08-12T06:10:44.196Z,71.18
2023-08-12T06:15:45.853Z,70.17
2023-08-12T06:20:47.510Z,69.08
2023-08-12T06:25:49.424Z,67.88
2023-08-12T06:30:51.103Z,67.88
2023-08-12T06:35:52.727Z,67.44
2023-08-12T06:40:54.362Z,67.04
2023-08-12T06:45:55.988Z,67.59
2023-08-12T06:50:57.886Z,67.49
2023-08-12T06:55:59.518Z,68.49
2023-08-12T07:01:01.248Z,67.95
2023-08-12T07:06:02.935Z,67.54
2023-08-12T07:11:05.774Z,67.01
2023-08-12T07:16:07.491Z,67.04
2023-08-12T07:21:09.257Z,67.58
2023-08-12T07:26:10.904Z,67.40
2023-08-12T07:31:12.627Z,68.23
2023-08-12T07:36:14.653Z,67.81
2023-08-12T07:41:16.273Z,67.63
2023-08-12T07:46:18.045Z,67.42
2023-08-12T07:51:19.784Z,66.53
2023-08-12T07:56:21.451Z,66.22
2023-08-12T08:01:23.098Z,66.42
2023-08-12T08:06:25.025Z,66.44
2023-08-12T08:11:26.706Z,66.47
2023-08-12T08:16:28.978Z,67.10
2023-08-12T08:21:30.767Z,66.07
2023-08-12T08:26:32.420Z,66.25
2023-08-12T08:31:34.054Z,65.96
2023-08-12T08:36:35.675Z,65.79
2023-08-12T08:41:39.934Z,65.08
2023-08-12T08:46:42.753Z,65.01
2023-08-12T08:51:44.936Z,64.42
2023-08-12T08:56:49.384Z,64.26
2023-08-12T09:01:58.167Z,65.26
2023-08-12T09:07:01.647Z,64.55
2023-08-12T09:12:04.207Z,65.38
2023-08-12T09:17:05.833Z,64.76
2023-08-12T09:22:10.661Z,63.21
2023-08-12T09:27:12.664Z,62.69
2023-08-12T09:32:19.098Z,61.41
2023-08-12T09:37:25.296Z,59.42
2023-08-12T09:42:27.084Z,57.42
2023-08-12T09:47:28.823Z,57.42
2023-08-12T09:52:30.541Z,54.93
2023-08-12T09:57:34.281Z,54.21
2023-08-12T10:02:36.043Z,53.37
2023-08-12T10:07:37.781Z,52.60
2023-08-12T10:12:39.990Z,51.97
2023-08-12T10:17:44.030Z,50.99
2023-08-12T10:22:46.579Z,51.10
2023-08-12T10:27:48.397Z,49.17
2023-08-12T10:32:50.524Z,50.32
2023-08-12T10:37:52.390Z,50.58
2023-08-12T10:42:54.304Z,49.49
2023-08-12T10:48:19.182Z,48.84
2023-08-12T10:53:31.040Z,49.98
2023-08-12T10:58:44.866Z,50.62
2023-08-12T11:03:49.913Z,51.21
2023-08-12T11:08:54.889Z,51.47
2023-08-12T11:14:00.487Z,51.64
2023-08-12T11:19:02.449Z,51.71
2023-08-12T11:24:04.910Z,51.83
2023-08-12T11:29:12.135Z,50.06
2023-08-12T11:34:13.888Z,49.92
2023-08-12T11:39:16.387Z,49.69
2023-08-12T11:44:18.381Z,50.16
2023-08-12T11:49:20.022Z,49.54
2023-08-12T11:54:21.747Z,49.05
2023-08-12T11:59:23.738Z,49.19
2023-08-12T12:04:25.491Z,49.32
2023-08-12T12:09:27.355Z,49.88
2023-08-12T12:14:29.594Z,51.25
2023-08-12T12:19:31.816Z,51.55
2023-08-12T12:24:45.046Z,51.76
2023-08-12T12:29:48.544Z,52.07
2023-08-12T12:34:51.003Z,52.53
2023-08-12T12:39:52.853Z,52.78
2023-08-12T12:44:54.561Z,52.59
2023-08-12T12:49:56.265Z,52.29
2023-08-12T12:54:58.703Z,52.29
2023-08-12T13:00:00.869Z,53.38
2023-08-12T13:05:03.034Z,53.10
2023-08-12T13:10:05.209Z,53.42
2023-08-12T13:15:08.158Z,54.19
2023-08-12T13:20:10.844Z,53.49
2023-08-12T13:25:13.381Z,53.18
2023-08-12T13:30:15.680Z,53.41
2023-08-12T13:35:18.516Z,53.19
2023-08-12T13:40:20.228Z,53.72
2023-08-12T13:45:22.480Z,53.72
2023-08-12T13:50:24.363Z,53.84
2023-08-12T13:55:26.808Z,54.28
2023-08-12T14:00:28.681Z,55.62
2023-08-12T14:05:30.576Z,56.34
2023-08-12T14:10:32.266Z,56.00
2023-08-12T14:15:33.911Z,55.23
2023-08-12T14:20:35.544Z,55.96
2023-08-12T14:25:37.173Z,56.40
2023-08-12T14:30:39.945Z,56.61
2023-08-12T14:35:41.822Z,55.47
2023-08-12T14:40:43.602Z,55.35
2023-08-12T14:45:48.181Z,55.84
2023-08-12T14:50:49.840Z,55.02
2023-08-12T14:55:51.533Z,54.01
2023-08-12T15:00:53.258Z,54.60
2023-08-12T15:06:02.323Z,55.03
2023-08-12T15:11:04.298Z,54.62
2023-08-12T15:16:06.385Z,55.36
2023-08-12T15:21:08.058Z,56.19
2023-08-12T15:26:09.836Z,56.55
2023-08-12T15:31:15.892Z,55.78
2023-08-12T15:36:17.577Z,53.40
2023-08-12T15:41:19.288Z,53.22
2023-08-12T15:46:20.949Z,53.90
2023-08-12T15:51:22.673Z,54.15
2023-08-12T15:56:24.593Z,54.30
2023-08-12T16:01:26.336Z,54.39
2023-08-12T16:06:29.537Z,54.16
2023-08-12T16:11:31.371Z,53.61
2023-08-12T16:16:33.429Z,52.99
2023-08-12T16:21:35.051Z,53.63
2023-08-12T16:26:36.758Z,53.41
2023-08-12T16:31:40.504Z,53.25
2023-08-12T16:36:42.846Z,53.19
2023-08-12T16:41:44.525Z,53.03
2023-08-12T16:46:46.244Z,53.79
2023-08-12T16:51:47.987Z,54.13
2023-08-12T16:56:49.626Z,55.42
2023-08-12T17:01:51.352Z,64.00
2023-08-12T17:06:55.990Z,68.10
2023-08-12T17:11:57.613Z,70.49
2023-08-12T17:16:59.286Z,76.06
2023-08-12T17:22:00.996Z,81.16
2023-08-12T17:27:02.742Z,84.43
2023-08-12T17:32:04.551Z,87.52
2023-08-12T17:37:06.155Z,88.31
2023-08-12T17:42:07.923Z,90.77
2023-08-12T17:47:09.585Z,91.91
2023-08-12T17:52:11.624Z,90.60
2023-08-12T17:57:13.577Z,91.03
2023-08-12T18:02:15.505Z,93.99
2023-08-12T18:07:17.466Z,90.08
2023-08-12T18:12:19.369Z,90.54
2023-08-12T18:17:21.133Z,92.58
2023-08-12T18:22:23.092Z,95.62
2023-08-12T18:27:24.731Z,92.52
2023-08-12T18:32:29.365Z,97.12
2023-08-12T18:37:31.460Z,95.09
2023-08-12T18:42:33.411Z,96.80
2023-08-12T18:47:35.105Z,95.24
2023-08-12T18:52:36.833Z,95.35
2023-08-12T18:57:38.595Z,94.75
2023-08-12T19:02:41.148Z,92.04
2023-08-12T19:07:42.814Z,98.50
2023-08-12T19:12:44.437Z,99.14
2023-08-12T19:17:46.074Z,99.39
2023-08-12T19:22:47.772Z,99.32
2023-08-12T19:27:49.359Z,96.03
2023-08-12T19:32:55.141Z,96.10
2023-08-12T19:37:59.944Z,96.68
2023-08-12T19:43:01.696Z,95.37
2023-08-12T19:48:03.572Z,93.45
2023-08-12T19:53:05.942Z,95.83
2023-08-12T19:58:07.672Z,96.11
2023-08-12T20:03:09.469Z,95.13
2023-08-12T20:08:11.161Z,96.79
2023-08-12T20:13:12.859Z,96.37
2023-08-12T20:18:14.584Z,95.33
2023-08-12T20:23:16.275Z,96.81
2023-08-12T20:28:17.869Z,98.88
2023-08-12T20:33:19.547Z,97.97
2023-08-12T20:38:21.332Z,98.19
2023-08-12T20:43:25.331Z,98.58
2023-08-12T20:48:26.941Z,96.14
2023-08-12T20:53:32.460Z,93.06
2023-08-12T20:58:34.130Z,92.46
2023-08-12T21:03:35.889Z,91.25
2023-08-12T21:08:37.640Z,91.79
2023-08-12T21:13:39.257Z,89.40
2023-08-12T21:18:40.891Z,88.08
2023-08-12T21:23:42.597Z,87.28
2023-08-12T21:28:44.200Z,85.91
2023-08-12T21:33:45.856Z,85.27
2023-08-12T21:38:47.513Z,84.00
2023-08-12T21:43:49.183Z,81.65
2023-08-12T21:48:50.994Z,79.96
2023-08-12T21:53:52.635Z,79.50
2023-08-12T21:58:54.774Z,79.49
2023-08-12T22:03:56.468Z,80.52
2023-08-12T22:08:58.279Z,80.48
2023-08-12T22:13:59.893Z,80.41
2023-08-12T22:19:01.526Z,80.01
2023-08-12T22:24:03.252Z,80.22
2023-08-12T22:29:04.905Z,79.81
2023-08-12T22:34:08.563Z,81.21
2023-08-12T22:39:10.217Z,80.55
2023-08-12T22:44:12.278Z,80.35
2023-08-12T22:49:14.388Z,78.89
2023-08-12T22:54:16.174Z,78.64
2023-08-12T22:59:19.169Z,78.56
2023-08-12T23:04:21.001Z,78.67
2023-08-12T23:09:22.626Z,78.74
2023-08-12T23:14:25.021Z,78.72
2023-08-12T23:19:26.685Z,78.33
2023-08-12T23:24:28.390Z,78.80
2023-08-12T23:29:30.071Z,78.02
2023-08-12T23:34:32.595Z,78.46
2023-08-12T23:39:34.339Z,78.94
2023-08-12T23:44:35.970Z,79.34
2023-08-12T23:49:37.645Z,79.18
2023-08-12T23:54:39.272Z,79.25
2023-08-12T23:59:41.097Z,79.63
